sensor_id;sensor_type;location;lat;lon;timestamp;temperature;humidity
10419;DHT22;5256;48.728;9.140;2023-02-18T00:00:58;10.60;99.90
10419;DHT22;5256;48.728;9.140;2023-02-18T00:03:27;10.70;99.90
10419;DHT22;5256;48.728;9.140;2023-02-18T00:05:54;10.60;99.90
10419;DHT22;5256;48.728;9.140;2023-02-18T00:08:22;10.60;99.90
10419;DHT22;5256;48.728;9.140;2023-02-18T00:10:48;10.60;99.90
10419;DHT22;5256;48.728;9.140;2023-02-18T00:13:13;10.50;99.90
10419;DHT22;5256;48.728;9.140;2023-02-18T00:15:39;10.40;99.90
10419;DHT22;5256;48.728;9.140;2023-02-18T00:18:05;10.40;99.90
10419;DHT22;5256;48.728;9.140;2023-02-18T00:20:31;10.40;99.90
10419;DHT22;5256;48.728;9.140;2023-02-18T00:23:01;10.40;99.90
10419;DHT22;5256;48.728;9.140;2023-02-18T00:25:27;10.40;99.90
10419;DHT22;5256;48.728;9.140;2023-02-18T00:27:53;10.40;99.90
10419;DHT22;5256;48.728;9.140;2023-02-18T00:30:18;10.30;99.90
10419;DHT22;5256;48.728;9.140;2023-02-18T00:32:44;10.30;99.90
10419;DHT22;5256;48.728;9.140;2023-02-18T00:35:09;10.30;99.90
10419;DHT22;5256;48.728;9.140;2023-02-18T00:37:35;10.30;99.90
10419;DHT22;5256;48.728;9.140;2023-02-18T00:40:00;10.30;99.90
10419;DHT22;5256;48.728;9.140;2023-02-18T00:42:26;10.30;99.90
10419;DHT22;5256;48.728;9.140;2023-02-18T00:44:51;10.30;99.90
10419;DHT22;5256;48.728;9.140;2023-02-18T00:47:17;10.30;99.90
10419;DHT22;5256;48.728;9.140;2023-02-18T00:49:42;10.40;99.90
10419;DHT22;5256;48.728;9.140;2023-02-18T00:52:08;10.40;99.90
10419;DHT22;5256;48.728;9.140;2023-02-18T00:54:33;10.40;99.90
10419;DHT22;5256;48.728;9.140;2023-02-18T00:56:59;10.40;99.90
10419;DHT22;5256;48.728;9.140;2023-02-18T00:59:25;10.40;99.90
10419;DHT22;5256;48.728;9.140;2023-02-18T01:01:50;10.40;99.90
10419;DHT22;5256;48.728;9.140;2023-02-18T01:04:16;10.40;99.90
10419;DHT22;5256;48.728;9.140;2023-02-18T01:06:41;10.40;99.90
10419;DHT22;5256;48.728;9.140;2023-02-18T01:09:07;10.50;99.90
10419;DHT22;5256;48.728;9.140;2023-02-18T01:11:32;10.50;99.90
10419;DHT22;5256;48.728;9.140;2023-02-18T01:13:58;10.50;99.90
10419;DHT22;5256;48.728;9.140;2023-02-18T01:16:24;10.50;99.90
10419;DHT22;5256;48.728;9.140;2023-02-18T01:18:49;10.50;99.90
10419;DHT22;5256;48.728;9.140;2023-02-18T01:21:15;10.50;99.90
10419;DHT22;5256;48.728;9.140;2023-02-18T01:23:41;10.50;99.90
10419;DHT22;5256;48.728;9.140;2023-02-18T01:26:08;10.40;99.90
10419;DHT22;5256;48.728;9.140;2023-02-18T01:28:34;10.40;99.90
10419;DHT22;5256;48.728;9.140;2023-02-18T01:31:05;10.30;99.90
10419;DHT22;5256;48.728;9.140;2023-02-18T01:33:31;10.30;99.90
10419;DHT22;5256;48.728;9.140;2023-02-18T01:35:56;10.20;99.90
10419;DHT22;5256;48.728;9.140;2023-02-18T01:38:22;10.20;99.90
10419;DHT22;5256;48.728;9.140;2023-02-18T01:40:50;10.00;99.90
10419;DHT22;5256;48.728;9.140;2023-02-18T01:43:17;10.00;99.90
10419;DHT22;5256;48.728;9.140;2023-02-18T01:48:35;10.00;99.90
10419;DHT22;5256;48.728;9.140;2023-02-18T01:53:54;10.00;99.90
10419;DHT22;5256;48.728;9.140;2023-02-18T01:59:19;10.00;99.90
10419;DHT22;5256;48.728;9.140;2023-02-18T02:01:45;9.90;99.90
10419;DHT22;5256;48.728;9.140;2023-02-18T02:04:12;10.00;99.90
10419;DHT22;5256;48.728;9.140;2023-02-18T02:06:37;9.90;99.90
10419;DHT22;5256;48.728;9.140;2023-02-18T02:09:05;9.90;99.90
10419;DHT22;5256;48.728;9.140;2023-02-18T02:14:42;9.80;99.90
10419;DHT22;5256;48.728;9.140;2023-02-18T02:25:50;9.50;99.90
10419;DHT22;5256;48.728;9.140;2023-02-18T02:31:15;9.40;99.90
10419;DHT22;5256;48.728;9.140;2023-02-18T02:34:26;9.30;99.90
10419;DHT22;5256;48.728;9.140;2023-02-18T02:40:00;9.60;99.90
10419;DHT22;5256;48.728;9.140;2023-02-18T02:45:37;9.60;99.90
10419;DHT22;5256;48.728;9.140;2023-02-18T02:48:15;9.60;99.90
10419;DHT22;5256;48.728;9.140;2023-02-18T02:50:51;9.60;99.90
10419;DHT22;5256;48.728;9.140;2023-02-18T02:53:36;9.70;99.90
10419;DHT22;5256;48.728;9.140;2023-02-18T02:56:04;9.80;99.90
10419;DHT22;5256;48.728;9.140;2023-02-18T02:58:30;9.90;99.90
10419;DHT22;5256;48.728;9.140;2023-02-18T03:01:13;9.90;99.90
10419;DHT22;5256;48.728;9.140;2023-02-18T03:06:58;10.00;99.90
10419;DHT22;5256;48.728;9.140;2023-02-18T03:09:27;10.00;99.90
10419;DHT22;5256;48.728;9.140;2023-02-18T03:12:07;9.90;99.90
10419;DHT22;5256;48.728;9.140;2023-02-18T03:17:29;9.70;99.90
10419;DHT22;5256;48.728;9.140;2023-02-18T03:20:09;9.50;99.90
10419;DHT22;5256;48.728;9.140;2023-02-18T03:22:43;9.40;99.90
10419;DHT22;5256;48.728;9.140;2023-02-18T03:25:10;9.20;99.90
10419;DHT22;5256;48.728;9.140;2023-02-18T03:27:57;9.00;99.90
10419;DHT22;5256;48.728;9.140;2023-02-18T03:30:47;8.90;99.90
10419;DHT22;5256;48.728;9.140;2023-02-18T03:33:16;8.80;99.90
10419;DHT22;5256;48.728;9.140;2023-02-18T03:35:44;8.60;99.90
10419;DHT22;5256;48.728;9.140;2023-02-18T03:38:35;8.50;99.90
10419;DHT22;5256;48.728;9.140;2023-02-18T03:41:03;8.40;99.90
10419;DHT22;5256;48.728;9.140;2023-02-18T03:43:30;8.30;99.90
10419;DHT22;5256;48.728;9.140;2023-02-18T03:45:57;8.30;99.90
10419;DHT22;5256;48.728;9.140;2023-02-18T03:48:23;8.30;99.90
10419;DHT22;5256;48.728;9.140;2023-02-18T03:50:48;8.30;99.90
10419;DHT22;5256;48.728;9.140;2023-02-18T03:53:14;8.10;99.90
10419;DHT22;5256;48.728;9.140;2023-02-18T03:55:39;8.20;99.90
10419;DHT22;5256;48.728;9.140;2023-02-18T03:58:05;8.40;99.90
10419;DHT22;5256;48.728;9.140;2023-02-18T04:00:31;8.50;99.90
10419;DHT22;5256;48.728;9.140;2023-02-18T04:02:56;8.60;99.90
10419;DHT22;5256;48.728;9.140;2023-02-18T04:05:22;8.70;99.90
10419;DHT22;5256;48.728;9.140;2023-02-18T04:07:47;8.80;99.90
10419;DHT22;5256;48.728;9.140;2023-02-18T04:10:13;8.80;99.90
10419;DHT22;5256;48.728;9.140;2023-02-18T04:12:38;8.90;99.90
10419;DHT22;5256;48.728;9.140;2023-02-18T04:15:04;8.90;99.90
10419;DHT22;5256;48.728;9.140;2023-02-18T04:17:32;8.90;99.90
10419;DHT22;5256;48.728;9.140;2023-02-18T04:19:57;8.80;99.90
10419;DHT22;5256;48.728;9.140;2023-02-18T04:22:23;8.80;99.90
10419;DHT22;5256;48.728;9.140;2023-02-18T04:24:48;8.60;99.90
10419;DHT22;5256;48.728;9.140;2023-02-18T04:27:14;8.50;99.90
10419;DHT22;5256;48.728;9.140;2023-02-18T04:29:40;8.40;99.90
10419;DHT22;5256;48.728;9.140;2023-02-18T04:32:05;8.30;99.90
10419;DHT22;5256;48.728;9.140;2023-02-18T04:34:31;8.20;99.90
10419;DHT22;5256;48.728;9.140;2023-02-18T04:36:56;8.20;99.90
10419;DHT22;5256;48.728;9.140;2023-02-18T04:39:22;8.10;99.90
10419;DHT22;5256;48.728;9.140;2023-02-18T04:41:48;8.00;99.90
10419;DHT22;5256;48.728;9.140;2023-02-18T04:44:13;8.00;99.90
10419;DHT22;5256;48.728;9.140;2023-02-18T04:46:39;8.00;99.90
10419;DHT22;5256;48.728;9.140;2023-02-18T04:49:04;7.90;99.90
10419;DHT22;5256;48.728;9.140;2023-02-18T04:51:30;7.90;99.90
10419;DHT22;5256;48.728;9.140;2023-02-18T04:53:55;7.90;99.90
10419;DHT22;5256;48.728;9.140;2023-02-18T04:56:21;7.80;99.90
10419;DHT22;5256;48.728;9.140;2023-02-18T04:58:46;7.80;99.90
10419;DHT22;5256;48.728;9.140;2023-02-18T05:01:12;7.80;99.90
10419;DHT22;5256;48.728;9.140;2023-02-18T05:03:38;7.80;99.90
10419;DHT22;5256;48.728;9.140;2023-02-18T05:06:03;7.80;99.90
10419;DHT22;5256;48.728;9.140;2023-02-18T05:08:29;7.90;99.90
10419;DHT22;5256;48.728;9.140;2023-02-18T05:10:55;7.90;99.90
10419;DHT22;5256;48.728;9.140;2023-02-18T05:13:20;7.90;99.90
10419;DHT22;5256;48.728;9.140;2023-02-18T05:15:47;8.00;99.90
10419;DHT22;5256;48.728;9.140;2023-02-18T05:18:13;8.00;99.90
10419;DHT22;5256;48.728;9.140;2023-02-18T05:20:38;8.00;99.90
10419;DHT22;5256;48.728;9.140;2023-02-18T05:23:04;8.00;99.90
10419;DHT22;5256;48.728;9.140;2023-02-18T05:25:29;8.10;99.90
10419;DHT22;5256;48.728;9.140;2023-02-18T05:27:55;8.20;99.90
10419;DHT22;5256;48.728;9.140;2023-02-18T05:30:20;8.20;99.90
10419;DHT22;5256;48.728;9.140;2023-02-18T05:32:46;8.20;99.90
10419;DHT22;5256;48.728;9.140;2023-02-18T05:35:11;8.20;99.90
10419;DHT22;5256;48.728;9.140;2023-02-18T05:37:38;8.00;99.90
10419;DHT22;5256;48.728;9.140;2023-02-18T05:40:04;8.00;99.90
10419;DHT22;5256;48.728;9.140;2023-02-18T05:42:30;8.00;99.90
10419;DHT22;5256;48.728;9.140;2023-02-18T05:44:57;8.00;99.90
10419;DHT22;5256;48.728;9.140;2023-02-18T05:47:23;8.10;99.90
10419;DHT22;5256;48.728;9.140;2023-02-18T05:49:49;8.10;99.90
10419;DHT22;5256;48.728;9.140;2023-02-18T05:52:15;8.30;99.90
10419;DHT22;5256;48.728;9.140;2023-02-18T05:54:41;8.40;99.90
10419;DHT22;5256;48.728;9.140;2023-02-18T05:57:07;8.40;99.90
10419;DHT22;5256;48.728;9.140;2023-02-18T05:59:32;8.50;99.90
10419;DHT22;5256;48.728;9.140;2023-02-18T06:01:58;8.60;99.90
10419;DHT22;5256;48.728;9.140;2023-02-18T06:04:24;8.60;99.90
10419;DHT22;5256;48.728;9.140;2023-02-18T06:06:50;8.60;99.90
10419;DHT22;5256;48.728;9.140;2023-02-18T06:09:16;8.60;99.90
10419;DHT22;5256;48.728;9.140;2023-02-18T06:11:41;8.70;99.90
10419;DHT22;5256;48.728;9.140;2023-02-18T06:14:07;8.70;99.90
10419;DHT22;5256;48.728;9.140;2023-02-18T06:16:33;8.70;99.90
10419;DHT22;5256;48.728;9.140;2023-02-18T06:18:59;8.70;99.90
10419;DHT22;5256;48.728;9.140;2023-02-18T06:21:24;8.80;99.90
10419;DHT22;5256;48.728;9.140;2023-02-18T06:23:50;8.90;99.90
10419;DHT22;5256;48.728;9.140;2023-02-18T06:26:16;8.90;99.90
10419;DHT22;5256;48.728;9.140;2023-02-18T06:28:42;9.00;99.90
10419;DHT22;5256;48.728;9.140;2023-02-18T06:31:07;9.10;99.90
10419;DHT22;5256;48.728;9.140;2023-02-18T06:33:33;9.10;99.90
10419;DHT22;5256;48.728;9.140;2023-02-18T06:36:01;9.20;99.90
10419;DHT22;5256;48.728;9.140;2023-02-18T06:38:27;9.20;99.90
10419;DHT22;5256;48.728;9.140;2023-02-18T06:40:53;9.20;99.90
10419;DHT22;5256;48.728;9.140;2023-02-18T06:43:19;9.30;99.90
10419;DHT22;5256;48.728;9.140;2023-02-18T06:45:45;9.40;99.90
10419;DHT22;5256;48.728;9.140;2023-02-18T06:48:11;9.40;99.90
10419;DHT22;5256;48.728;9.140;2023-02-18T06:50:37;9.50;99.90
10419;DHT22;5256;48.728;9.140;2023-02-18T06:53:03;9.50;99.90
10419;DHT22;5256;48.728;9.140;2023-02-18T06:55:28;9.60;99.90
10419;DHT22;5256;48.728;9.140;2023-02-18T06:57:54;9.60;99.90
10419;DHT22;5256;48.728;9.140;2023-02-18T07:00:20;9.70;99.90
10419;DHT22;5256;48.728;9.140;2023-02-18T07:02:47;9.70;99.90
10419;DHT22;5256;48.728;9.140;2023-02-18T07:05:12;9.80;99.90
10419;DHT22;5256;48.728;9.140;2023-02-18T07:07:38;9.80;99.90
10419;DHT22;5256;48.728;9.140;2023-02-18T07:10:04;9.90;99.90
10419;DHT22;5256;48.728;9.140;2023-02-18T07:12:30;9.90;99.90
10419;DHT22;5256;48.728;9.140;2023-02-18T07:14:55;9.90;99.90
10419;DHT22;5256;48.728;9.140;2023-02-18T07:17:23;10.00;99.90
10419;DHT22;5256;48.728;9.140;2023-02-18T07:19:49;10.00;99.90
10419;DHT22;5256;48.728;9.140;2023-02-18T07:22:15;10.10;99.90
10419;DHT22;5256;48.728;9.140;2023-02-18T07:24:40;10.10;99.90
10419;DHT22;5256;48.728;9.140;2023-02-18T07:27:06;10.10;99.90
10419;DHT22;5256;48.728;9.140;2023-02-18T07:29:32;10.10;99.90
10419;DHT22;5256;48.728;9.140;2023-02-18T07:31:57;10.20;99.90
10419;DHT22;5256;48.728;9.140;2023-02-18T07:34:23;10.20;99.90
10419;DHT22;5256;48.728;9.140;2023-02-18T07:36:48;10.20;99.90
10419;DHT22;5256;48.728;9.140;2023-02-18T07:39:14;10.20;99.90
10419;DHT22;5256;48.728;9.140;2023-02-18T07:41:40;10.20;99.90
10419;DHT22;5256;48.728;9.140;2023-02-18T07:44:06;10.20;99.90
10419;DHT22;5256;48.728;9.140;2023-02-18T07:46:31;10.20;99.90
10419;DHT22;5256;48.728;9.140;2023-02-18T07:48:57;10.20;99.90
10419;DHT22;5256;48.728;9.140;2023-02-18T07:51:22;10.30;99.90
10419;DHT22;5256;48.728;9.140;2023-02-18T07:53:48;10.40;99.90
10419;DHT22;5256;48.728;9.140;2023-02-18T07:56:14;10.40;99.90
10419;DHT22;5256;48.728;9.140;2023-02-18T07:58:40;10.50;99.90
10419;DHT22;5256;48.728;9.140;2023-02-18T08:01:11;10.50;99.90
10419;DHT22;5256;48.728;9.140;2023-02-18T08:03:37;10.60;99.90
10419;DHT22;5256;48.728;9.140;2023-02-18T08:06:04;10.70;99.90
10419;DHT22;5256;48.728;9.140;2023-02-18T08:08:30;10.70;99.90
10419;DHT22;5256;48.728;9.140;2023-02-18T08:10:58;10.70;99.90
10419;DHT22;5256;48.728;9.140;2023-02-18T08:13:26;10.70;99.90
10419;DHT22;5256;48.728;9.140;2023-02-18T08:15:54;10.70;99.90
10419;DHT22;5256;48.728;9.140;2023-02-18T08:18:22;10.80;99.90
10419;DHT22;5256;48.728;9.140;2023-02-18T08:20:49;10.80;99.90
10419;DHT22;5256;48.728;9.140;2023-02-18T08:23:17;10.80;99.90
10419;DHT22;5256;48.728;9.140;2023-02-18T08:25:48;10.90;99.90
10419;DHT22;5256;48.728;9.140;2023-02-18T08:28:14;10.80;99.90
10419;DHT22;5256;48.728;9.140;2023-02-18T08:30:47;10.90;99.90
10419;DHT22;5256;48.728;9.140;2023-02-18T08:33:13;10.90;99.90
10419;DHT22;5256;48.728;9.140;2023-02-18T08:35:39;10.80;99.90
10419;DHT22;5256;48.728;9.140;2023-02-18T08:38:04;10.90;99.90
10419;DHT22;5256;48.728;9.140;2023-02-18T08:40:30;11.00;99.90
10419;DHT22;5256;48.728;9.140;2023-02-18T08:42:55;10.90;99.90
10419;DHT22;5256;48.728;9.140;2023-02-18T08:45:21;10.90;99.90
10419;DHT22;5256;48.728;9.140;2023-02-18T08:47:47;11.10;99.90
10419;DHT22;5256;48.728;9.140;2023-02-18T08:50:12;11.20;99.90
10419;DHT22;5256;48.728;9.140;2023-02-18T08:52:38;11.30;99.90
10419;DHT22;5256;48.728;9.140;2023-02-18T08:55:04;11.50;99.90
10419;DHT22;5256;48.728;9.140;2023-02-18T08:57:30;11.50;99.90
10419;DHT22;5256;48.728;9.140;2023-02-18T08:59:56;11.50;99.90
10419;DHT22;5256;48.728;9.140;2023-02-18T09:02:21;11.60;99.90
10419;DHT22;5256;48.728;9.140;2023-02-18T09:04:47;11.60;99.90
10419;DHT22;5256;48.728;9.140;2023-02-18T09:07:13;11.60;99.90
10419;DHT22;5256;48.728;9.140;2023-02-18T09:09:39;11.60;99.90
10419;DHT22;5256;48.728;9.140;2023-02-18T09:12:04;11.60;99.90
10419;DHT22;5256;48.728;9.140;2023-02-18T09:14:30;11.70;99.90
10419;DHT22;5256;48.728;9.140;2023-02-18T09:16:56;11.70;99.90
10419;DHT22;5256;48.728;9.140;2023-02-18T09:19:23;11.80;99.90
10419;DHT22;5256;48.728;9.140;2023-02-18T09:21:48;11.80;99.90
10419;DHT22;5256;48.728;9.140;2023-02-18T09:24:16;11.80;99.90
10419;DHT22;5256;48.728;9.140;2023-02-18T09:26:41;11.90;99.90
10419;DHT22;5256;48.728;9.140;2023-02-18T09:29:07;11.90;99.90
10419;DHT22;5256;48.728;9.140;2023-02-18T09:31:33;11.90;99.90
10419;DHT22;5256;48.728;9.140;2023-02-18T09:34:01;11.90;99.90
10419;DHT22;5256;48.728;9.140;2023-02-18T09:36:27;12.10;99.90
10419;DHT22;5256;48.728;9.140;2023-02-18T09:38:54;12.20;99.90
10419;DHT22;5256;48.728;9.140;2023-02-18T09:44:45;12.20;99.90
10419;DHT22;5256;48.728;9.140;2023-02-18T09:46:58;12.30;99.90
10419;DHT22;5256;48.728;9.140;2023-02-18T09:49:27;12.10;99.90
10419;DHT22;5256;48.728;9.140;2023-02-18T09:51:55;12.00;99.90
10419;DHT22;5256;48.728;9.140;2023-02-18T09:54:21;12.00;99.90
10419;DHT22;5256;48.728;9.140;2023-02-18T09:56:48;12.00;99.90
10419;DHT22;5256;48.728;9.140;2023-02-18T09:59:17;12.00;99.90
10419;DHT22;5256;48.728;9.140;2023-02-18T10:01:44;12.10;99.90
10419;DHT22;5256;48.728;9.140;2023-02-18T10:04:18;12.10;99.90
10419;DHT22;5256;48.728;9.140;2023-02-18T10:06:46;12.20;99.90
10419;DHT22;5256;48.728;9.140;2023-02-18T10:09:19;12.20;99.90
10419;DHT22;5256;48.728;9.140;2023-02-18T10:11:49;12.30;99.90
10419;DHT22;5256;48.728;9.140;2023-02-18T10:14:16;12.40;99.90
10419;DHT22;5256;48.728;9.140;2023-02-18T10:16:43;12.40;99.90
10419;DHT22;5256;48.728;9.140;2023-02-18T10:19:32;12.50;99.90
10419;DHT22;5256;48.728;9.140;2023-02-18T10:22:01;12.40;99.90
10419;DHT22;5256;48.728;9.140;2023-02-18T10:24:30;12.30;99.90
10419;DHT22;5256;48.728;9.140;2023-02-18T10:26:56;12.20;99.90
10419;DHT22;5256;48.728;9.140;2023-02-18T10:29:23;12.30;99.90
10419;DHT22;5256;48.728;9.140;2023-02-18T10:34:52;12.40;99.90
10419;DHT22;5256;48.728;9.140;2023-02-18T10:42:51;12.40;99.90
10419;DHT22;5256;48.728;9.140;2023-02-18T10:45:25;12.40;99.90
10419;DHT22;5256;48.728;9.140;2023-02-18T10:49:03;12.40;99.90
10419;DHT22;5256;48.728;9.140;2023-02-18T10:51:21;12.50;99.90
10419;DHT22;5256;48.728;9.140;2023-02-18T10:53:49;12.70;99.90
10419;DHT22;5256;48.728;9.140;2023-02-18T10:56:48;12.80;99.90
10419;DHT22;5256;48.728;9.140;2023-02-18T10:59:31;12.70;99.90
10419;DHT22;5256;48.728;9.140;2023-02-18T11:02:00;12.60;99.90
10419;DHT22;5256;48.728;9.140;2023-02-18T11:04:36;12.70;99.90
10419;DHT22;5256;48.728;9.140;2023-02-18T11:07:05;12.80;99.90
10419;DHT22;5256;48.728;9.140;2023-02-18T11:09:53;12.80;99.90
10419;DHT22;5256;48.728;9.140;2023-02-18T11:15:19;12.80;99.90
10419;DHT22;5256;48.728;9.140;2023-02-18T11:17:47;12.80;99.90
10419;DHT22;5256;48.728;9.140;2023-02-18T11:20:28;12.70;99.90
10419;DHT22;5256;48.728;9.140;2023-02-18T11:23:19;12.60;99.90
10419;DHT22;5256;48.728;9.140;2023-02-18T11:26:00;12.70;99.90
10419;DHT22;5256;48.728;9.140;2023-02-18T11:28:31;12.90;99.90
10419;DHT22;5256;48.728;9.140;2023-02-18T11:30:59;12.90;99.90
10419;DHT22;5256;48.728;9.140;2023-02-18T11:36:03;13.10;99.90
10419;DHT22;5256;48.728;9.140;2023-02-18T11:38:57;12.90;99.90
10419;DHT22;5256;48.728;9.140;2023-02-18T11:42:00;12.90;99.90
10419;DHT22;5256;48.728;9.140;2023-02-18T11:44:28;13.00;99.90
10419;DHT22;5256;48.728;9.140;2023-02-18T11:47:06;13.00;99.90
10419;DHT22;5256;48.728;9.140;2023-02-18T11:49:59;13.10;99.90
10419;DHT22;5256;48.728;9.140;2023-02-18T11:52:46;13.10;99.90
10419;DHT22;5256;48.728;9.140;2023-02-18T11:55:23;13.20;99.90
10419;DHT22;5256;48.728;9.140;2023-02-18T11:58:01;13.20;99.90
10419;DHT22;5256;48.728;9.140;2023-02-18T12:00:37;13.20;99.90
10419;DHT22;5256;48.728;9.140;2023-02-18T12:05:51;13.50;99.90
10419;DHT22;5256;48.728;9.140;2023-02-18T12:08:21;13.70;99.90
10419;DHT22;5256;48.728;9.140;2023-02-18T12:11:04;13.80;99.90
10419;DHT22;5256;48.728;9.140;2023-02-18T12:13:38;13.80;99.90
10419;DHT22;5256;48.728;9.140;2023-02-18T12:26:44;13.50;99.90
10419;DHT22;5256;48.728;9.140;2023-02-18T12:40:51;13.60;99.90
10419;DHT22;5256;48.728;9.140;2023-02-18T12:46:15;13.60;99.90
10419;DHT22;5256;48.728;9.140;2023-02-18T12:56:53;13.40;99.90
10419;DHT22;5256;48.728;9.140;2023-02-18T13:02:44;13.70;99.90
10419;DHT22;5256;48.728;9.140;2023-02-18T13:08:51;13.60;99.90
10419;DHT22;5256;48.728;9.140;2023-02-18T13:11:40;13.50;99.90
10419;DHT22;5256;48.728;9.140;2023-02-18T13:14:20;13.60;99.90
10419;DHT22;5256;48.728;9.140;2023-02-18T13:16:50;13.70;99.90
10419;DHT22;5256;48.728;9.140;2023-02-18T13:22:11;13.70;99.90
10419;DHT22;5256;48.728;9.140;2023-02-18T13:24:38;13.60;99.90
10419;DHT22;5256;48.728;9.140;2023-02-18T13:27:20;13.50;99.90
10419;DHT22;5256;48.728;9.140;2023-02-18T13:32:25;13.30;99.90
10419;DHT22;5256;48.728;9.140;2023-02-18T13:40:30;13.20;99.90
10419;DHT22;5256;48.728;9.140;2023-02-18T13:43:19;13.30;99.90
10419;DHT22;5256;48.728;9.140;2023-02-18T13:46:07;13.40;99.90
10419;DHT22;5256;48.728;9.140;2023-02-18T13:48:42;13.40;99.90
10419;DHT22;5256;48.728;9.140;2023-02-18T13:51:10;13.60;99.90
10419;DHT22;5256;48.728;9.140;2023-02-18T13:53:38;13.60;99.90
10419;DHT22;5256;48.728;9.140;2023-02-18T13:58:43;13.30;99.90
10419;DHT22;5256;48.728;9.140;2023-02-18T14:03:50;13.20;99.90
10419;DHT22;5256;48.728;9.140;2023-02-18T14:06:29;13.20;99.90
10419;DHT22;5256;48.728;9.140;2023-02-18T14:11:54;13.30;99.90
10419;DHT22;5256;48.728;9.140;2023-02-18T14:19:39;13.20;99.90
10419;DHT22;5256;48.728;9.140;2023-02-18T14:22:26;13.10;99.90
10419;DHT22;5256;48.728;9.140;2023-02-18T14:27:39;13.10;99.90
10419;DHT22;5256;48.728;9.140;2023-02-18T14:30:16;13.10;99.90
10419;DHT22;5256;48.728;9.140;2023-02-18T14:32:43;13.10;99.90
10419;DHT22;5256;48.728;9.140;2023-02-18T14:38:00;13.30;99.90
10419;DHT22;5256;48.728;9.140;2023-02-18T14:43:23;13.30;99.90
10419;DHT22;5256;48.728;9.140;2023-02-18T14:48:55;13.40;99.90
10419;DHT22;5256;48.728;9.140;2023-02-18T14:51:25;13.30;99.90
10419;DHT22;5256;48.728;9.140;2023-02-18T14:53:51;13.20;99.90
10419;DHT22;5256;48.728;9.140;2023-02-18T14:56:19;13.10;99.90
10419;DHT22;5256;48.728;9.140;2023-02-18T14:58:47;13.10;99.90
10419;DHT22;5256;48.728;9.140;2023-02-18T15:01:20;13.10;99.90
10419;DHT22;5256;48.728;9.140;2023-02-18T15:03:48;13.00;99.90
10419;DHT22;5256;48.728;9.140;2023-02-18T15:06:32;12.90;99.90
10419;DHT22;5256;48.728;9.140;2023-02-18T15:08:59;12.90;99.90
10419;DHT22;5256;48.728;9.140;2023-02-18T15:11:40;12.90;99.90
10419;DHT22;5256;48.728;9.140;2023-02-18T15:14:24;12.90;99.90
10419;DHT22;5256;48.728;9.140;2023-02-18T15:16:51;12.90;99.90
10419;DHT22;5256;48.728;9.140;2023-02-18T15:19:19;12.80;99.90
10419;DHT22;5256;48.728;9.140;2023-02-18T15:21:47;12.90;99.90
10419;DHT22;5256;48.728;9.140;2023-02-18T15:24:33;12.80;99.90
10419;DHT22;5256;48.728;9.140;2023-02-18T15:27:26;12.80;99.90
10419;DHT22;5256;48.728;9.140;2023-02-18T15:32:39;12.80;99.90
10419;DHT22;5256;48.728;9.140;2023-02-18T15:35:15;12.80;99.90
10419;DHT22;5256;48.728;9.140;2023-02-18T15:37:44;12.80;99.90
10419;DHT22;5256;48.728;9.140;2023-02-18T15:40:17;12.80;99.90
10419;DHT22;5256;48.728;9.140;2023-02-18T15:42:46;12.80;99.90
10419;DHT22;5256;48.728;9.140;2023-02-18T15:45:21;12.80;99.90
10419;DHT22;5256;48.728;9.140;2023-02-18T15:47:50;12.80;99.90
10419;DHT22;5256;48.728;9.140;2023-02-18T15:50:33;12.80;99.90
10419;DHT22;5256;48.728;9.140;2023-02-18T15:53:05;12.80;99.90
10419;DHT22;5256;48.728;9.140;2023-02-18T15:55:38;12.80;99.90
10419;DHT22;5256;48.728;9.140;2023-02-18T15:58:18;12.80;99.90
10419;DHT22;5256;48.728;9.140;2023-02-18T16:00:54;12.80;99.90
10419;DHT22;5256;48.728;9.140;2023-02-18T16:03:28;12.80;99.90
10419;DHT22;5256;48.728;9.140;2023-02-18T16:06:16;12.70;99.90
10419;DHT22;5256;48.728;9.140;2023-02-18T16:12:43;12.60;99.90
10419;DHT22;5256;48.728;9.140;2023-02-18T16:15:01;12.40;99.90
10419;DHT22;5256;48.728;9.140;2023-02-18T16:17:28;12.40;99.90
10419;DHT22;5256;48.728;9.140;2023-02-18T16:20:16;12.30;99.90
10419;DHT22;5256;48.728;9.140;2023-02-18T16:22:50;12.20;99.90
10419;DHT22;5256;48.728;9.140;2023-02-18T16:25:24;12.20;99.90
10419;DHT22;5256;48.728;9.140;2023-02-18T16:28:04;12.20;99.90
10419;DHT22;5256;48.728;9.140;2023-02-18T16:30:33;12.10;99.90
10419;DHT22;5256;48.728;9.140;2023-02-18T16:32:59;12.10;99.90
10419;DHT22;5256;48.728;9.140;2023-02-18T16:35:26;12.00;99.90
10419;DHT22;5256;48.728;9.140;2023-02-18T16:37:53;12.00;99.90
10419;DHT22;5256;48.728;9.140;2023-02-18T16:40:36;11.90;99.90
10419;DHT22;5256;48.728;9.140;2023-02-18T16:43:17;11.90;99.90
10419;DHT22;5256;48.728;9.140;2023-02-18T16:45:44;11.80;99.90
10419;DHT22;5256;48.728;9.140;2023-02-18T16:48:22;11.80;99.90
10419;DHT22;5256;48.728;9.140;2023-02-18T16:50:49;11.70;99.90
10419;DHT22;5256;48.728;9.140;2023-02-18T16:53:15;11.70;99.90
10419;DHT22;5256;48.728;9.140;2023-02-18T16:55:40;11.70;99.90
10419;DHT22;5256;48.728;9.140;2023-02-18T16:58:06;11.60;99.90
10419;DHT22;5256;48.728;9.140;2023-02-18T17:00:31;11.60;99.90
10419;DHT22;5256;48.728;9.140;2023-02-18T17:02:58;11.60;99.90
10419;DHT22;5256;48.728;9.140;2023-02-18T17:05:27;11.60;99.90
10419;DHT22;5256;48.728;9.140;2023-02-18T17:07:54;11.60;99.90
10419;DHT22;5256;48.728;9.140;2023-02-18T17:10:20;11.60;99.90
10419;DHT22;5256;48.728;9.140;2023-02-18T17:12:45;11.60;99.90
10419;DHT22;5256;48.728;9.140;2023-02-18T17:17:46;11.70;99.90
10419;DHT22;5256;48.728;9.140;2023-02-18T17:20:12;11.70;99.90
10419;DHT22;5256;48.728;9.140;2023-02-18T17:22:40;11.70;99.90
10419;DHT22;5256;48.728;9.140;2023-02-18T17:25:26;11.60;99.90
10419;DHT22;5256;48.728;9.140;2023-02-18T17:27:53;11.70;99.90
10419;DHT22;5256;48.728;9.140;2023-02-18T17:30:18;11.60;99.90
10419;DHT22;5256;48.728;9.140;2023-02-18T17:32:44;11.60;99.90
10419;DHT22;5256;48.728;9.140;2023-02-18T17:35:22;11.60;99.90
10419;DHT22;5256;48.728;9.140;2023-02-18T17:37:48;11.70;99.90
10419;DHT22;5256;48.728;9.140;2023-02-18T17:40:26;11.70;99.90
10419;DHT22;5256;48.728;9.140;2023-02-18T17:42:53;11.70;99.90
10419;DHT22;5256;48.728;9.140;2023-02-18T17:45:39;11.70;99.90
10419;DHT22;5256;48.728;9.140;2023-02-18T17:48:06;11.60;99.90
10419;DHT22;5256;48.728;9.140;2023-02-18T17:50:31;11.60;99.90
10419;DHT22;5256;48.728;9.140;2023-02-18T17:52:58;11.60;99.90
10419;DHT22;5256;48.728;9.140;2023-02-18T17:55:29;11.60;99.90
10419;DHT22;5256;48.728;9.140;2023-02-18T17:57:55;11.60;99.90
10419;DHT22;5256;48.728;9.140;2023-02-18T18:00:31;11.50;99.90
10419;DHT22;5256;48.728;9.140;2023-02-18T18:02:58;11.50;99.90
10419;DHT22;5256;48.728;9.140;2023-02-18T18:05:29;11.50;99.90
10419;DHT22;5256;48.728;9.140;2023-02-18T18:07:56;11.50;99.90
10419;DHT22;5256;48.728;9.140;2023-02-18T18:10:23;11.40;99.90
10419;DHT22;5256;48.728;9.140;2023-02-18T18:12:58;11.40;99.90
10419;DHT22;5256;48.728;9.140;2023-02-18T18:15:40;11.40;99.90
10419;DHT22;5256;48.728;9.140;2023-02-18T18:18:06;11.40;99.90
10419;DHT22;5256;48.728;9.140;2023-02-18T18:20:33;11.40;99.90
10419;DHT22;5256;48.728;9.140;2023-02-18T18:23:01;11.30;99.90
10419;DHT22;5256;48.728;9.140;2023-02-18T18:25:32;11.30;99.90